sensor_id;sensor_type;location;lat;lon;timestamp;temperature;humidity
3492;DHT22;1760;52.480;13.422;2023-01-24T00:01:02;3.20;99.90
3492;DHT22;1760;52.480;13.422;2023-01-24T00:03:29;3.20;99.90
3492;DHT22;1760;52.480;13.422;2023-01-24T00:05:56;3.20;99.90
3492;DHT22;1760;52.480;13.422;2023-01-24T00:08:23;3.20;99.90
3492;DHT22;1760;52.480;13.422;2023-01-24T00:10:58;3.20;99.90
3492;DHT22;1760;52.480;13.422;2023-01-24T00:13:26;3.20;99.90
3492;DHT22;1760;52.480;13.422;2023-01-24T00:16:02;3.10;99.90
3492;DHT22;1760;52.480;13.422;2023-01-24T00:23:44;3.10;99.90
3492;DHT22;1760;52.480;13.422;2023-01-24T00:26:18;2.60;99.90
3492;DHT22;1760;52.480;13.422;2023-01-24T00:28:46;3.00;99.90
3492;DHT22;1760;52.480;13.422;2023-01-24T00:31:13;3.00;99.90
3492;DHT22;1760;52.480;13.422;2023-01-24T00:33:40;3.00;99.90
3492;DHT22;1760;52.480;13.422;2023-01-24T00:36:08;3.00;99.90
3492;DHT22;1760;52.480;13.422;2023-01-24T00:38:42;3.00;99.90
3492;DHT22;1760;52.480;13.422;2023-01-24T00:41:09;3.00;99.90
3492;DHT22;1760;52.480;13.422;2023-01-24T00:43:37;3.00;99.90
3492;DHT22;1760;52.480;13.422;2023-01-24T00:46:05;3.00;99.90
3492;DHT22;1760;52.480;13.422;2023-01-24T00:48:32;3.00;99.90
3492;DHT22;1760;52.480;13.422;2023-01-24T00:50:59;3.10;99.90
3492;DHT22;1760;52.480;13.422;2023-01-24T00:53:26;3.00;99.90
3492;DHT22;1760;52.480;13.422;2023-01-24T00:55:53;3.00;99.90
3492;DHT22;1760;52.480;13.422;2023-01-24T00:58:21;3.00;99.90
3492;DHT22;1760;52.480;13.422;2023-01-24T01:00:49;2.90;99.90
3492;DHT22;1760;52.480;13.422;2023-01-24T01:03:18;2.90;99.90
3492;DHT22;1760;52.480;13.422;2023-01-24T01:05:45;2.90;99.90
3492;DHT22;1760;52.480;13.422;2023-01-24T01:08:12;2.90;99.90
3492;DHT22;1760;52.480;13.422;2023-01-24T01:10:40;3.00;99.90
3492;DHT22;1760;52.480;13.422;2023-01-24T01:13:07;3.00;99.90
3492;DHT22;1760;52.480;13.422;2023-01-24T01:15:35;3.00;99.90
3492;DHT22;1760;52.480;13.422;2023-01-24T01:18:04;3.00;99.90
3492;DHT22;1760;52.480;13.422;2023-01-24T01:20:31;3.00;99.90
3492;DHT22;1760;52.480;13.422;2023-01-24T01:22:58;3.00;99.90
3492;DHT22;1760;52.480;13.422;2023-01-24T01:25:25;3.10;99.90
3492;DHT22;1760;52.480;13.422;2023-01-24T01:27:52;3.00;99.90
3492;DHT22;1760;52.480;13.422;2023-01-24T01:30:19;3.00;99.90
3492;DHT22;1760;52.480;13.422;2023-01-24T01:32:46;3.00;99.90
3492;DHT22;1760;52.480;13.422;2023-01-24T01:35:14;3.00;99.90
3492;DHT22;1760;52.480;13.422;2023-01-24T01:37:41;3.00;99.90
3492;DHT22;1760;52.480;13.422;2023-01-24T01:40:09;2.90;99.90
3492;DHT22;1760;52.480;13.422;2023-01-24T01:42:49;2.90;99.90
3492;DHT22;1760;52.480;13.422;2023-01-24T01:45:44;2.90;99.90
3492;DHT22;1760;52.480;13.422;2023-01-24T01:48:19;2.90;99.90
3492;DHT22;1760;52.480;13.422;2023-01-24T01:50:53;2.90;99.90
3492;DHT22;1760;52.480;13.422;2023-01-24T01:53:27;2.90;99.90
3492;DHT22;1760;52.480;13.422;2023-01-24T01:55:59;2.80;99.90
3492;DHT22;1760;52.480;13.422;2023-01-24T01:58:27;2.80;99.90
3492;DHT22;1760;52.480;13.422;2023-01-24T02:00:54;2.80;99.90
3492;DHT22;1760;52.480;13.422;2023-01-24T02:03:27;2.80;99.90
3492;DHT22;1760;52.480;13.422;2023-01-24T02:06:32;2.80;99.90
3492;DHT22;1760;52.480;13.422;2023-01-24T02:09:01;2.80;99.90
3492;DHT22;1760;52.480;13.422;2023-01-24T02:11:30;2.80;99.90
3492;DHT22;1760;52.480;13.422;2023-01-24T02:14:09;2.70;99.90
3492;DHT22;1760;52.480;13.422;2023-01-24T02:16:54;2.70;99.90
3492;DHT22;1760;52.480;13.422;2023-01-24T02:19:37;2.70;99.90
3492;DHT22;1760;52.480;13.422;2023-01-24T02:22:14;2.60;99.90
3492;DHT22;1760;52.480;13.422;2023-01-24T02:24:48;2.60;99.90
3492;DHT22;1760;52.480;13.422;2023-01-24T02:27:20;2.60;99.90
3492;DHT22;1760;52.480;13.422;2023-01-24T02:29:48;2.60;99.90
3492;DHT22;1760;52.480;13.422;2023-01-24T02:32:15;2.60;99.90
3492;DHT22;1760;52.480;13.422;2023-01-24T02:34:43;2.70;99.90
3492;DHT22;1760;52.480;13.422;2023-01-24T02:37:12;2.70;99.90
3492;DHT22;1760;52.480;13.422;2023-01-24T02:39:45;2.70;99.90
3492;DHT22;1760;52.480;13.422;2023-01-24T02:42:13;2.70;99.90
3492;DHT22;1760;52.480;13.422;2023-01-24T02:44:46;2.60;99.90
3492;DHT22;1760;52.480;13.422;2023-01-24T02:47:14;2.60;99.90
3492;DHT22;1760;52.480;13.422;2023-01-24T02:49:41;2.60;99.90
3492;DHT22;1760;52.480;13.422;2023-01-24T02:52:09;2.60;99.90
3492;DHT22;1760;52.480;13.422;2023-01-24T02:54:53;2.60;99.90
3492;DHT22;1760;52.480;13.422;2023-01-24T02:57:20;2.70;99.90
3492;DHT22;1760;52.480;13.422;2023-01-24T03:00:08;2.60;99.90
3492;DHT22;1760;52.480;13.422;2023-01-24T03:02:35;2.60;99.90
3492;DHT22;1760;52.480;13.422;2023-01-24T03:05:02;2.60;99.90
3492;DHT22;1760;52.480;13.422;2023-01-24T03:07:29;2.50;99.90
3492;DHT22;1760;52.480;13.422;2023-01-24T03:10:08;2.50;99.90
3492;DHT22;1760;52.480;13.422;2023-01-24T03:12:35;2.50;99.90
3492;DHT22;1760;52.480;13.422;2023-01-24T03:15:20;2.50;99.90
3492;DHT22;1760;52.480;13.422;2023-01-24T03:18:05;2.50;99.90
3492;DHT22;1760;52.480;13.422;2023-01-24T03:20:49;2.50;99.90
3492;DHT22;1760;52.480;13.422;2023-01-24T03:23:34;2.50;99.90
3492;DHT22;1760;52.480;13.422;2023-01-24T03:26:18;2.40;99.90
3492;DHT22;1760;52.480;13.422;2023-01-24T03:29:02;2.40;99.90
3492;DHT22;1760;52.480;13.422;2023-01-24T03:31:48;2.30;99.90
3492;DHT22;1760;52.480;13.422;2023-01-24T03:34:33;2.40;99.90
3492;DHT22;1760;52.480;13.422;2023-01-24T03:37:11;2.40;99.90
3492;DHT22;1760;52.480;13.422;2023-01-24T03:39:39;2.40;99.90
3492;DHT22;1760;52.480;13.422;2023-01-24T03:42:24;2.40;99.90
3492;DHT22;1760;52.480;13.422;2023-01-24T03:44:51;2.40;99.90
3492;DHT22;1760;52.480;13.422;2023-01-24T03:47:19;2.40;99.90
3492;DHT22;1760;52.480;13.422;2023-01-24T03:49:46;2.40;99.90
3492;DHT22;1760;52.480;13.422;2023-01-24T03:52:30;2.40;99.90
3492;DHT22;1760;52.480;13.422;2023-01-24T03:54:58;2.40;99.90
3492;DHT22;1760;52.480;13.422;2023-01-24T03:57:27;2.40;99.90
3492;DHT22;1760;52.480;13.422;2023-01-24T03:59:54;2.40;99.90
3492;DHT22;1760;52.480;13.422;2023-01-24T04:02:22;2.40;99.90
3492;DHT22;1760;52.480;13.422;2023-01-24T04:04:49;2.40;99.90
3492;DHT22;1760;52.480;13.422;2023-01-24T04:07:33;2.40;99.90
3492;DHT22;1760;52.480;13.422;2023-01-24T04:10:00;2.40;99.90
3492;DHT22;1760;52.480;13.422;2023-01-24T04:12:27;2.40;99.90
3492;DHT22;1760;52.480;13.422;2023-01-24T04:14:54;2.40;99.90
3492;DHT22;1760;52.480;13.422;2023-01-24T04:17:22;2.40;99.90
3492;DHT22;1760;52.480;13.422;2023-01-24T04:19:49;2.50;99.90
3492;DHT22;1760;52.480;13.422;2023-01-24T04:22:16;2.40;99.90
3492;DHT22;1760;52.480;13.422;2023-01-24T04:24:43;2.40;99.90
3492;DHT22;1760;52.480;13.422;2023-01-24T04:27:11;2.40;99.90
3492;DHT22;1760;52.480;13.422;2023-01-24T04:29:38;2.40;99.90
3492;DHT22;1760;52.480;13.422;2023-01-24T04:32:05;2.40;99.90
3492;DHT22;1760;52.480;13.422;2023-01-24T04:34:33;2.40;99.90
3492;DHT22;1760;52.480;13.422;2023-01-24T04:37:00;2.40;99.90
3492;DHT22;1760;52.480;13.422;2023-01-24T04:39:27;2.30;99.90
3492;DHT22;1760;52.480;13.422;2023-01-24T04:41:54;2.30;99.90
3492;DHT22;1760;52.480;13.422;2023-01-24T04:44:21;2.30;99.90
3492;DHT22;1760;52.480;13.422;2023-01-24T04:46:48;2.30;99.90
3492;DHT22;1760;52.480;13.422;2023-01-24T04:49:14;2.30;99.90
3492;DHT22;1760;52.480;13.422;2023-01-24T04:51:46;2.30;99.90
3492;DHT22;1760;52.480;13.422;2023-01-24T04:54:12;2.40;99.90
3492;DHT22;1760;52.480;13.422;2023-01-24T04:56:39;2.30;99.90
3492;DHT22;1760;52.480;13.422;2023-01-24T04:59:06;2.30;99.90
3492;DHT22;1760;52.480;13.422;2023-01-24T05:01:33;2.30;99.90
3492;DHT22;1760;52.480;13.422;2023-01-24T05:04:00;2.30;99.90
3492;DHT22;1760;52.480;13.422;2023-01-24T05:06:28;2.40;99.90
3492;DHT22;1760;52.480;13.422;2023-01-24T05:08:56;2.30;99.90
3492;DHT22;1760;52.480;13.422;2023-01-24T05:11:24;2.40;99.90
3492;DHT22;1760;52.480;13.422;2023-01-24T05:13:51;2.40;99.90
3492;DHT22;1760;52.480;13.422;2023-01-24T05:16:18;2.40;99.90
3492;DHT22;1760;52.480;13.422;2023-01-24T05:18:45;2.40;99.90
3492;DHT22;1760;52.480;13.422;2023-01-24T05:21:15;2.40;99.90
3492;DHT22;1760;52.480;13.422;2023-01-24T05:23:42;2.40;99.90
3492;DHT22;1760;52.480;13.422;2023-01-24T05:26:10;2.40;99.90
3492;DHT22;1760;52.480;13.422;2023-01-24T05:28:37;2.40;99.90
3492;DHT22;1760;52.480;13.422;2023-01-24T05:31:05;2.40;99.90
3492;DHT22;1760;52.480;13.422;2023-01-24T05:33:34;2.40;99.90
3492;DHT22;1760;52.480;13.422;2023-01-24T05:36:03;2.40;99.90
3492;DHT22;1760;52.480;13.422;2023-01-24T05:38:31;2.40;99.90
3492;DHT22;1760;52.480;13.422;2023-01-24T05:40:59;2.40;99.90
3492;DHT22;1760;52.480;13.422;2023-01-24T05:43:28;2.40;99.90
3492;DHT22;1760;52.480;13.422;2023-01-24T05:45:58;2.40;99.90
3492;DHT22;1760;52.480;13.422;2023-01-24T05:48:25;2.40;99.90
3492;DHT22;1760;52.480;13.422;2023-01-24T05:50:57;2.40;99.90
3492;DHT22;1760;52.480;13.422;2023-01-24T05:53:24;2.50;99.90
3492;DHT22;1760;52.480;13.422;2023-01-24T05:55:55;2.40;99.90
3492;DHT22;1760;52.480;13.422;2023-01-24T05:58:22;2.40;99.90
3492;DHT22;1760;52.480;13.422;2023-01-24T06:00:50;2.50;99.90
3492;DHT22;1760;52.480;13.422;2023-01-24T06:03:17;2.40;99.90
3492;DHT22;1760;52.480;13.422;2023-01-24T06:05:48;2.40;99.90
3492;DHT22;1760;52.480;13.422;2023-01-24T06:08:15;2.50;99.90
3492;DHT22;1760;52.480;13.422;2023-01-24T06:10:45;2.40;99.90
3492;DHT22;1760;52.480;13.422;2023-01-24T06:13:14;2.50;99.90
3492;DHT22;1760;52.480;13.422;2023-01-24T06:15:40;2.50;99.90
3492;DHT22;1760;52.480;13.422;2023-01-24T06:18:13;2.40;99.90
3492;DHT22;1760;52.480;13.422;2023-01-24T06:20:41;2.40;99.90
3492;DHT22;1760;52.480;13.422;2023-01-24T06:23:12;2.40;99.90
3492;DHT22;1760;52.480;13.422;2023-01-24T06:25:44;2.30;99.90
3492;DHT22;1760;52.480;13.422;2023-01-24T06:28:11;2.40;99.90
3492;DHT22;1760;52.480;13.422;2023-01-24T06:30:40;2.30;99.90
3492;DHT22;1760;52.480;13.422;2023-01-24T06:33:18;2.30;99.90
3492;DHT22;1760;52.480;13.422;2023-01-24T06:35:59;2.30;99.90
3492;DHT22;1760;52.480;13.422;2023-01-24T06:38:34;2.40;99.90
3492;DHT22;1760;52.480;13.422;2023-01-24T06:41:02;2.30;99.90
3492;DHT22;1760;52.480;13.422;2023-01-24T06:43:29;2.40;99.90
3492;DHT22;1760;52.480;13.422;2023-01-24T06:45:56;2.30;99.90
3492;DHT22;1760;52.480;13.422;2023-01-24T06:48:24;2.40;99.90
3492;DHT22;1760;52.480;13.422;2023-01-24T06:50:51;2.40;99.90
3492;DHT22;1760;52.480;13.422;2023-01-24T06:53:18;2.40;99.90
3492;DHT22;1760;52.480;13.422;2023-01-24T06:55:45;2.40;99.90
3492;DHT22;1760;52.480;13.422;2023-01-24T06:58:12;2.40;99.90
3492;DHT22;1760;52.480;13.422;2023-01-24T07:00:39;2.40;99.90
3492;DHT22;1760;52.480;13.422;2023-01-24T07:03:07;2.40;99.90
3492;DHT22;1760;52.480;13.422;2023-01-24T07:05:36;2.40;99.90
3492;DHT22;1760;52.480;13.422;2023-01-24T07:08:04;2.40;99.90
3492;DHT22;1760;52.480;13.422;2023-01-24T07:10:32;2.40;99.90
3492;DHT22;1760;52.480;13.422;2023-01-24T07:12:59;2.40;99.90
3492;DHT22;1760;52.480;13.422;2023-01-24T07:15:25;2.40;99.90
3492;DHT22;1760;52.480;13.422;2023-01-24T07:17:53;2.40;99.90
3492;DHT22;1760;52.480;13.422;2023-01-24T07:20:20;2.40;99.90
3492;DHT22;1760;52.480;13.422;2023-01-24T07:22:49;2.40;99.90
3492;DHT22;1760;52.480;13.422;2023-01-24T07:25:18;2.40;99.90
3492;DHT22;1760;52.480;13.422;2023-01-24T07:27:46;2.40;99.90
3492;DHT22;1760;52.480;13.422;2023-01-24T07:30:14;2.40;99.90
3492;DHT22;1760;52.480;13.422;2023-01-24T07:32:41;2.50;99.90
3492;DHT22;1760;52.480;13.422;2023-01-24T07:35:08;2.40;99.90
3492;DHT22;1760;52.480;13.422;2023-01-24T07:37:35;2.50;99.90
3492;DHT22;1760;52.480;13.422;2023-01-24T07:40:04;2.40;99.90
3492;DHT22;1760;52.480;13.422;2023-01-24T07:42:31;2.50;99.90
3492;DHT22;1760;52.480;13.422;2023-01-24T07:44:58;2.50;99.90
3492;DHT22;1760;52.480;13.422;2023-01-24T07:47:26;2.50;99.90
3492;DHT22;1760;52.480;13.422;2023-01-24T07:49:52;2.50;99.90
3492;DHT22;1760;52.480;13.422;2023-01-24T07:52:19;2.50;99.90
3492;DHT22;1760;52.480;13.422;2023-01-24T07:54:46;2.50;99.90
3492;DHT22;1760;52.480;13.422;2023-01-24T07:57:14;2.50;99.90
3492;DHT22;1760;52.480;13.422;2023-01-24T07:59:42;2.60;99.90
3492;DHT22;1760;52.480;13.422;2023-01-24T08:02:09;2.60;99.90
3492;DHT22;1760;52.480;13.422;2023-01-24T08:04:37;2.50;99.90
3492;DHT22;1760;52.480;13.422;2023-01-24T08:07:03;2.50;99.90
3492;DHT22;1760;52.480;13.422;2023-01-24T08:09:47;2.50;99.90
3492;DHT22;1760;52.480;13.422;2023-01-24T08:12:15;2.50;99.90
3492;DHT22;1760;52.480;13.422;2023-01-24T08:14:42;2.50;99.90
3492;DHT22;1760;52.480;13.422;2023-01-24T08:17:11;2.50;99.90
3492;DHT22;1760;52.480;13.422;2023-01-24T08:19:38;2.60;99.90
3492;DHT22;1760;52.480;13.422;2023-01-24T08:22:06;2.60;99.90
3492;DHT22;1760;52.480;13.422;2023-01-24T08:24:33;2.70;99.90
3492;DHT22;1760;52.480;13.422;2023-01-24T08:27:01;2.60;99.90
3492;DHT22;1760;52.480;13.422;2023-01-24T08:29:29;2.60;99.90
3492;DHT22;1760;52.480;13.422;2023-01-24T08:31:57;2.60;99.90
3492;DHT22;1760;52.480;13.422;2023-01-24T08:34:30;2.70;99.90
3492;DHT22;1760;52.480;13.422;2023-01-24T08:36:57;2.60;99.90
3492;DHT22;1760;52.480;13.422;2023-01-24T08:39:24;2.90;99.90
3492;DHT22;1760;52.480;13.422;2023-01-24T08:41:51;2.90;99.90
3492;DHT22;1760;52.480;13.422;2023-01-24T08:44:18;3.00;99.90
3492;DHT22;1760;52.480;13.422;2023-01-24T08:46:46;2.90;99.90
3492;DHT22;1760;52.480;13.422;2023-01-24T08:49:13;2.90;99.90
3492;DHT22;1760;52.480;13.422;2023-01-24T08:51:39;2.90;99.90
3492;DHT22;1760;52.480;13.422;2023-01-24T08:54:06;2.90;99.90
3492;DHT22;1760;52.480;13.422;2023-01-24T08:56:34;2.90;99.90
3492;DHT22;1760;52.480;13.422;2023-01-24T08:59:01;2.90;99.90
3492;DHT22;1760;52.480;13.422;2023-01-24T09:01:27;3.00;99.90
3492;DHT22;1760;52.480;13.422;2023-01-24T09:03:56;3.00;99.90
3492;DHT22;1760;52.480;13.422;2023-01-24T09:06:25;3.00;99.90
3492;DHT22;1760;52.480;13.422;2023-01-24T09:08:52;2.90;99.90
3492;DHT22;1760;52.480;13.422;2023-01-24T09:11:20;2.90;99.90
3492;DHT22;1760;52.480;13.422;2023-01-24T09:13:47;2.90;99.90
3492;DHT22;1760;52.480;13.422;2023-01-24T09:16:13;2.90;99.90
3492;DHT22;1760;52.480;13.422;2023-01-24T09:18:40;3.00;99.90
3492;DHT22;1760;52.480;13.422;2023-01-24T09:21:09;3.00;99.90
3492;DHT22;1760;52.480;13.422;2023-01-24T09:23:36;3.00;99.90
3492;DHT22;1760;52.480;13.422;2023-01-24T09:26:03;3.00;99.90
3492;DHT22;1760;52.480;13.422;2023-01-24T09:28:30;3.10;99.90
3492;DHT22;1760;52.480;13.422;2023-01-24T09:30:57;3.10;99.90
3492;DHT22;1760;52.480;13.422;2023-01-24T09:33:24;3.10;99.90
3492;DHT22;1760;52.480;13.422;2023-01-24T09:35:53;3.10;99.90
3492;DHT22;1760;52.480;13.422;2023-01-24T09:38:22;3.10;99.90
3492;DHT22;1760;52.480;13.422;2023-01-24T09:40:54;3.10;99.90
3492;DHT22;1760;52.480;13.422;2023-01-24T09:43:41;3.10;99.90
3492;DHT22;1760;52.480;13.422;2023-01-24T09:46:17;3.10;99.90
3492;DHT22;1760;52.480;13.422;2023-01-24T09:48:49;3.10;99.90
3492;DHT22;1760;52.480;13.422;2023-01-24T09:51:22;3.20;99.90
3492;DHT22;1760;52.480;13.422;2023-01-24T09:53:55;3.20;99.90
3492;DHT22;1760;52.480;13.422;2023-01-24T09:56:25;3.20;99.90
3492;DHT22;1760;52.480;13.422;2023-01-24T09:59:02;3.30;99.90
3492;DHT22;1760;52.480;13.422;2023-01-24T10:01:36;3.30;99.90
3492;DHT22;1760;52.480;13.422;2023-01-24T10:04:14;3.40;99.90
3492;DHT22;1760;52.480;13.422;2023-01-24T10:09:35;3.50;99.90
3492;DHT22;1760;52.480;13.422;2023-01-24T10:12:14;3.40;99.90
3492;DHT22;1760;52.480;13.422;2023-01-24T10:14:51;3.40;99.90
3492;DHT22;1760;52.480;13.422;2023-01-24T10:17:30;3.50;99.90
3492;DHT22;1760;52.480;13.422;2023-01-24T10:20:28;3.50;99.90
3492;DHT22;1760;52.480;13.422;2023-01-24T10:23:02;3.50;99.90
3492;DHT22;1760;52.480;13.422;2023-01-24T10:25:37;3.50;99.90
3492;DHT22;1760;52.480;13.422;2023-01-24T10:28:16;3.60;99.90
3492;DHT22;1760;52.480;13.422;2023-01-24T10:30:48;3.60;99.90
3492;DHT22;1760;52.480;13.422;2023-01-24T10:33:19;3.60;99.90
3492;DHT22;1760;52.480;13.422;2023-01-24T10:35:56;3.70;99.90
3492;DHT22;1760;52.480;13.422;2023-01-24T10:38:23;3.80;99.90
3492;DHT22;1760;52.480;13.422;2023-01-24T10:40:53;3.80;99.90
3492;DHT22;1760;52.480;13.422;2023-01-24T10:43:23;3.80;99.90
3492;DHT22;1760;52.480;13.422;2023-01-24T10:46:00;3.80;99.90
3492;DHT22;1760;52.480;13.422;2023-01-24T10:48:39;3.90;99.90
3492;DHT22;1760;52.480;13.422;2023-01-24T10:51:14;3.90;99.90
3492;DHT22;1760;52.480;13.422;2023-01-24T10:53:41;3.90;99.90
3492;DHT22;1760;52.480;13.422;2023-01-24T10:56:09;4.00;99.90
3492;DHT22;1760;52.480;13.422;2023-01-24T10:58:40;3.90;99.90
3492;DHT22;1760;52.480;13.422;2023-01-24T11:01:14;4.00;99.90
3492;DHT22;1760;52.480;13.422;2023-01-24T11:03:43;4.00;99.90
3492;DHT22;1760;52.480;13.422;2023-01-24T11:06:23;4.10;99.90
3492;DHT22;1760;52.480;13.422;2023-01-24T11:08:54;4.10;99.90
3492;DHT22;1760;52.480;13.422;2023-01-24T11:11:25;4.10;99.90
3492;DHT22;1760;52.480;13.422;2023-01-24T11:13:56;4.00;99.90
3492;DHT22;1760;52.480;13.422;2023-01-24T11:16:26;4.00;99.90
3492;DHT22;1760;52.480;13.422;2023-01-24T11:18:57;4.00;99.90
3492;DHT22;1760;52.480;13.422;2023-01-24T11:21:25;4.00;99.90
3492;DHT22;1760;52.480;13.422;2023-01-24T11:24:02;4.00;99.90
3492;DHT22;1760;52.480;13.422;2023-01-24T11:26:38;3.90;99.90
3492;DHT22;1760;52.480;13.422;2023-01-24T11:29:17;3.90;99.90
3492;DHT22;1760;52.480;13.422;2023-01-24T11:31:46;3.90;99.90
3492;DHT22;1760;52.480;13.422;2023-01-24T11:37:35;4.00;99.90
3492;DHT22;1760;52.480;13.422;2023-01-24T11:40:18;4.00;99.90
3492;DHT22;1760;52.480;13.422;2023-01-24T11:42:53;4.00;99.90
3492;DHT22;1760;52.480;13.422;2023-01-24T11:45:40;3.90;99.90
3492;DHT22;1760;52.480;13.422;2023-01-24T11:48:17;3.90;99.90
3492;DHT22;1760;52.480;13.422;2023-01-24T11:50:53;4.00;99.90
3492;DHT22;1760;52.480;13.422;2023-01-24T11:53:37;3.90;99.90
3492;DHT22;1760;52.480;13.422;2023-01-24T11:56:14;3.90;99.90
3492;DHT22;1760;52.480;13.422;2023-01-24T12:02:21;3.90;99.90
3492;DHT22;1760;52.480;13.422;2023-01-24T12:05:11;3.90;99.90
3492;DHT22;1760;52.480;13.422;2023-01-24T12:07:48;3.90;99.90
3492;DHT22;1760;52.480;13.422;2023-01-24T12:10:22;3.90;99.90
3492;DHT22;1760;52.480;13.422;2023-01-24T12:12:59;4.00;99.90
3492;DHT22;1760;52.480;13.422;2023-01-24T12:15:38;3.90;99.90
3492;DHT22;1760;52.480;13.422;2023-01-24T12:18:21;3.90;99.90
3492;DHT22;1760;52.480;13.422;2023-01-24T12:20:57;3.90;99.90
3492;DHT22;1760;52.480;13.422;2023-01-24T12:23:26;3.90;99.90
3492;DHT22;1760;52.480;13.422;2023-01-24T12:25:59;3.90;99.90
3492;DHT22;1760;52.480;13.422;2023-01-24T12:28:32;3.90;99.90
3492;DHT22;1760;52.480;13.422;2023-01-24T12:31:02;3.90;99.90
3492;DHT22;1760;52.480;13.422;2023-01-24T12:33:33;3.90;99.90
3492;DHT22;1760;52.480;13.422;2023-01-24T12:36:06;3.90;99.90
3492;DHT22;1760;52.480;13.422;2023-01-24T12:38:39;3.90;99.90
3492;DHT22;1760;52.480;13.422;2023-01-24T12:41:13;3.90;99.90
3492;DHT22;1760;52.480;13.422;2023-01-24T12:43:51;4.00;99.90
3492;DHT22;1760;52.480;13.422;2023-01-24T12:46:25;4.00;99.90
3492;DHT22;1760;52.480;13.422;2023-01-24T12:49:06;4.00;99.90
3492;DHT22;1760;52.480;13.422;2023-01-24T12:51:40;4.00;99.90
3492;DHT22;1760;52.480;13.422;2023-01-24T12:54:13;4.00;99.90
3492;DHT22;1760;52.480;13.422;2023-01-24T12:56:48;4.00;99.90
3492;DHT22;1760;52.480;13.422;2023-01-24T12:59:21;3.90;99.90
3492;DHT22;1760;52.480;13.422;2023-01-24T13:02:01;4.00;99.90
3492;DHT22;1760;52.480;13.422;2023-01-24T13:04:39;4.00;99.90
3492;DHT22;1760;52.480;13.422;2023-01-24T13:07:13;3.90;99.90
3492;DHT22;1760;52.480;13.422;2023-01-24T13:09:48;3.90;99.90
3492;DHT22;1760;52.480;13.422;2023-01-24T13:12:21;4.00;99.90
3492;DHT22;1760;52.480;13.422;2023-01-24T13:14:52;3.90;99.90
3492;DHT22;1760;52.480;13.422;2023-01-24T13:17:37;4.00;99.90
3492;DHT22;1760;52.480;13.422;2023-01-24T13:20:18;4.00;99.90
3492;DHT22;1760;52.480;13.422;2023-01-24T13:23:02;4.00;99.90
3492;DHT22;1760;52.480;13.422;2023-01-24T13:26:00;3.90;99.90
3492;DHT22;1760;52.480;13.422;2023-01-24T13:28:37;3.90;99.90
3492;DHT22;1760;52.480;13.422;2023-01-24T13:31:13;3.90;99.90
3492;DHT22;1760;52.480;13.422;2023-01-24T13:33:45;3.90;99.90
3492;DHT22;1760;52.480;13.422;2023-01-24T13:36:18;3.80;99.90
3492;DHT22;1760;52.480;13.422;2023-01-24T13:38:46;3.80;99.90
3492;DHT22;1760;52.480;13.422;2023-01-24T13:41:16;3.80;99.90
3492;DHT22;1760;52.480;13.422;2023-01-24T13:43:56;3.80;99.90
3492;DHT22;1760;52.480;13.422;2023-01-24T13:46:55;3.80;99.90
3492;DHT22;1760;52.480;13.422;2023-01-24T13:49:36;3.80;99.90
3492;DHT22;1760;52.480;13.422;2023-01-24T13:52:38;3.80;99.90
3492;DHT22;1760;52.480;13.422;2023-01-24T13:58:30;3.90;99.90
3492;DHT22;1760;52.480;13.422;2023-01-24T14:00:59;3.90;99.90
3492;DHT22;1760;52.480;13.422;2023-01-24T14:03:32;3.80;99.90
3492;DHT22;1760;52.480;13.422;2023-01-24T14:06:09;3.90;99.90
3492;DHT22;1760;52.480;13.422;2023-01-24T14:09:00;3.80;99.90
3492;DHT22;1760;52.480;13.422;2023-01-24T14:11:38;3.80;99.90
3492;DHT22;1760;52.480;13.422;2023-01-24T14:14:28;3.80;99.90
3492;DHT22;1760;52.480;13.422;2023-01-24T14:17:02;3.80;99.90
3492;DHT22;1760;52.480;13.422;2023-01-24T14:19:33;3.80;99.90
3492;DHT22;1760;52.480;13.422;2023-01-24T14:22:06;3.80;99.90
3492;DHT22;1760;52.480;13.422;2023-01-24T14:25:01;3.80;99.90
3492;DHT22;1760;52.480;13.422;2023-01-24T14:27:34;3.80;99.90
3492;DHT22;1760;52.480;13.422;2023-01-24T14:30:33;3.90;99.90
3492;DHT22;1760;52.480;13.422;2023-01-24T14:33:20;3.90;99.90
3492;DHT22;1760;52.480;13.422;2023-01-24T14:35:56;3.90;99.90
3492;DHT22;1760;52.480;13.422;2023-01-24T14:38:24;3.90;99.90
3492;DHT22;1760;52.480;13.422;2023-01-24T14:40:54;3.90;99.90
3492;DHT22;1760;52.480;13.422;2023-01-24T14:43:26;3.80;99.90
3492;DHT22;1760;52.480;13.422;2023-01-24T14:45:57;3.80;99.90
3492;DHT22;1760;52.480;13.422;2023-01-24T14:48:25;3.80;99.90
3492;DHT22;1760;52.480;13.422;2023-01-24T14:50:59;3.80;99.90
3492;DHT22;1760;52.480;13.422;2023-01-24T14:53:30;3.80;99.90
3492;DHT22;1760;52.480;13.422;2023-01-24T14:56:05;3.80;99.90
3492;DHT22;1760;52.480;13.422;2023-01-24T14:58:32;3.80;99.90
3492;DHT22;1760;52.480;13.422;2023-01-24T15:01:00;3.80;99.90
3492;DHT22;1760;52.480;13.422;2023-01-24T15:03:29;3.80;99.90
3492;DHT22;1760;52.480;13.422;2023-01-24T15:06:01;3.80;99.90
3492;DHT22;1760;52.480;13.422;2023-01-24T15:08:29;3.80;99.90
3492;DHT22;1760;52.480;13.422;2023-01-24T15:11:02;3.70;99.90
3492;DHT22;1760;52.480;13.422;2023-01-24T15:13:33;3.80;99.90
3492;DHT22;1760;52.480;13.422;2023-01-24T15:16:02;3.80;99.90
3492;DHT22;1760;52.480;13.422;2023-01-24T15:18:45;3.80;99.90
3492;DHT22;1760;52.480;13.422;2023-01-24T15:21:32;3.80;99.90
3492;DHT22;1760;52.480;13.422;2023-01-24T15:24:00;3.80;99.90
3492;DHT22;1760;52.480;13.422;2023-01-24T15:26:41;3.80;99.90
3492;DHT22;1760;52.480;13.422;2023-01-24T15:29:37;3.80;99.90
3492;DHT22;1760;52.480;13.422;2023-01-24T15:32:19;3.70;99.90
3492;DHT22;1760;52.480;13.422;2023-01-24T15:34:47;3.70;99.90
3492;DHT22;1760;52.480;13.422;2023-01-24T15:37:14;3.70;99.90
3492;DHT22;1760;52.480;13.422;2023-01-24T15:39:42;3.70;99.90
3492;DHT22;1760;52.480;13.422;2023-01-24T15:42:15;3.70;99.90
3492;DHT22;1760;52.480;13.422;2023-01-24T15:45:01;3.70;99.90
3492;DHT22;1760;52.480;13.422;2023-01-24T15:47:28;3.70;99.90
3492;DHT22;1760;52.480;13.422;2023-01-24T15:50:15;3.70;99.90
3492;DHT22;1760;52.480;13.422;2023-01-24T15:53:22;3.70;99.90
3492;DHT22;1760;52.480;13.422;2023-01-24T15:55:49;3.70;99.90
3492;DHT22;1760;52.480;13.422;2023-01-24T15:58:18;3.70;99.90
3492;DHT22;1760;52.480;13.422;2023-01-24T16:00:52;3.70;99.90
3492;DHT22;1760;52.480;13.422;2023-01-24T16:03:20;3.70;99.90
3492;DHT22;1760;52.480;13.422;2023-01-24T16:05:47;3.70;99.90
3492;DHT22;1760;52.480;13.422;2023-01-24T16:08:14;3.70;99.90
3492;DHT22;1760;52.480;13.422;2023-01-24T16:10:42;3.70;99.90
3492;DHT22;1760;52.480;13.422;2023-01-24T16:13:24;3.70;99.90
3492;DHT22;1760;52.480;13.422;2023-01-24T16:15:51;3.70;99.90
3492;DHT22;1760;52.480;13.422;2023-01-24T16:18:18;3.70;99.90
3492;DHT22;1760;52.480;13.422;2023-01-24T16:20:45;3.70;99.90
3492;DHT22;1760;52.480;13.422;2023-01-24T16:23:12;3.70;99.90
3492;DHT22;1760;52.480;13.422;2023-01-24T16:25:39;3.70;99.90
3492;DHT22;1760;52.480;13.422;2023-01-24T16:28:09;3.70;99.90
3492;DHT22;1760;52.480;13.422;2023-01-24T16:30:43;3.70;99.90
3492;DHT22;1760;52.480;13.422;2023-01-24T16:33:10;3.70;99.90
3492;DHT22;1760;52.480;13.422;2023-01-24T16:35:37;3.80;99.90
3492;DHT22;1760;52.480;13.422;2023-01-24T16:38:03;3.80;99.90
3492;DHT22;1760;52.480;13.422;2023-01-24T16:40:30;3.80;99.90
3492;DHT22;1760;52.480;13.422;2023-01-24T16:43:01;3.70;99.90
3492;DHT22;1760;52.480;13.422;2023-01-24T16:45:28;3.80;99.90
3492;DHT22;1760;52.480;13.422;2023-01-24T16:47:57;3.80;99.90
3492;DHT22;1760;52.480;13.422;2023-01-24T16:50:24;3.80;99.90